sensor_id;sensor_type;location;lat;lon;timestamp;P1;durP1;ratioP1;P2;durP2;ratioP2
78141;SDS011;67393;52.620;13.482;2023-12-20T00:00:03;8.18;;;5.30;;
78141;SDS011;67393;52.620;13.482;2023-12-20T00:02:30;8.85;;;4.85;;
78141;SDS011;67393;52.620;13.482;2023-12-20T00:04:56;11.98;;;6.15;;
78141;SDS011;67393;52.620;13.482;2023-12-20T00:07:23;11.70;;;6.18;;
78141;SDS011;67393;52.620;13.482;2023-12-20T00:09:49;12.65;;;6.55;;
78141;SDS011;67393;52.620;13.482;2023-12-20T00:12:16;13.35;;;6.88;;
78141;SDS011;67393;52.620;13.482;2023-12-20T00:14:42;8.57;;;5.32;;
78141;SDS011;67393;52.620;13.482;2023-12-20T00:17:09;9.45;;;4.93;;
78141;SDS011;67393;52.620;13.482;2023-12-20T00:19:35;12.15;;;6.80;;
78141;SDS011;67393;52.620;13.482;2023-12-20T00:22:02;15.07;;;6.72;;
78141;SDS011;67393;52.620;13.482;2023-12-20T00:24:28;12.20;;;7.10;;
78141;SDS011;67393;52.620;13.482;2023-12-20T00:26:54;9.52;;;5.78;;
78141;SDS011;67393;52.620;13.482;2023-12-20T00:29:21;10.57;;;5.90;;
78141;SDS011;67393;52.620;13.482;2023-12-20T00:31:47;10.48;;;5.88;;
78141;SDS011;67393;52.620;13.482;2023-12-20T00:34:14;13.00;;;6.50;;
78141;SDS011;67393;52.620;13.482;2023-12-20T00:36:40;12.95;;;6.72;;
78141;SDS011;67393;52.620;13.482;2023-12-20T00:39:07;12.10;;;5.25;;
78141;SDS011;67393;52.620;13.482;2023-12-20T00:41:36;11.90;;;5.72;;
78141;SDS011;67393;52.620;13.482;2023-12-20T00:44:02;9.90;;;5.78;;
78141;SDS011;67393;52.620;13.482;2023-12-20T00:46:29;7.75;;;4.20;;
78141;SDS011;67393;52.620;13.482;2023-12-20T00:48:55;11.65;;;5.63;;
78141;SDS011;67393;52.620;13.482;2023-12-20T00:51:22;11.13;;;6.22;;
78141;SDS011;67393;52.620;13.482;2023-12-20T00:53:49;7.82;;;4.65;;
78141;SDS011;67393;52.620;13.482;2023-12-20T00:56:16;9.38;;;5.78;;
78141;SDS011;67393;52.620;13.482;2023-12-20T00:58:43;9.75;;;5.47;;
78141;SDS011;67393;52.620;13.482;2023-12-20T01:01:09;9.30;;;5.35;;
78141;SDS011;67393;52.620;13.482;2023-12-20T01:03:35;9.00;;;4.88;;
78141;SDS011;67393;52.620;13.482;2023-12-20T01:06:02;8.75;;;5.15;;
78141;SDS011;67393;52.620;13.482;2023-12-20T01:08:29;9.30;;;5.05;;
78141;SDS011;67393;52.620;13.482;2023-12-20T01:10:55;10.30;;;5.40;;
78141;SDS011;67393;52.620;13.482;2023-12-20T01:13:21;10.02;;;5.43;;
78141;SDS011;67393;52.620;13.482;2023-12-20T01:15:48;10.18;;;5.80;;
78141;SDS011;67393;52.620;13.482;2023-12-20T01:18:14;11.25;;;6.60;;
78141;SDS011;67393;52.620;13.482;2023-12-20T01:20:41;12.88;;;6.45;;
78141;SDS011;67393;52.620;13.482;2023-12-20T01:23:07;10.90;;;5.60;;
78141;SDS011;67393;52.620;13.482;2023-12-20T01:25:34;8.85;;;4.85;;
78141;SDS011;67393;52.620;13.482;2023-12-20T01:28:00;9.63;;;5.50;;
78141;SDS011;67393;52.620;13.482;2023-12-20T01:30:26;10.55;;;5.65;;
78141;SDS011;67393;52.620;13.482;2023-12-20T01:32:53;9.80;;;4.85;;
78141;SDS011;67393;52.620;13.482;2023-12-20T01:35:20;9.55;;;3.72;;
78141;SDS011;67393;52.620;13.482;2023-12-20T01:37:46;11.95;;;6.07;;
78141;SDS011;67393;52.620;13.482;2023-12-20T01:40:13;7.78;;;4.05;;
78141;SDS011;67393;52.620;13.482;2023-12-20T01:42:40;13.95;;;5.53;;
78141;SDS011;67393;52.620;13.482;2023-12-20T01:45:07;10.27;;;5.35;;
78141;SDS011;67393;52.620;13.482;2023-12-20T01:47:34;7.50;;;4.05;;
78141;SDS011;67393;52.620;13.482;2023-12-20T01:50:01;9.13;;;5.25;;
78141;SDS011;67393;52.620;13.482;2023-12-20T01:52:27;9.32;;;5.43;;
78141;SDS011;67393;52.620;13.482;2023-12-20T01:54:54;8.52;;;3.72;;
78141;SDS011;67393;52.620;13.482;2023-12-20T01:57:20;8.60;;;4.93;;
78141;SDS011;67393;52.620;13.482;2023-12-20T01:59:47;5.88;;;3.25;;
78141;SDS011;67393;52.620;13.482;2023-12-20T02:02:13;7.85;;;4.28;;
78141;SDS011;67393;52.620;13.482;2023-12-20T02:04:40;7.93;;;4.28;;
78141;SDS011;67393;52.620;13.482;2023-12-20T02:07:07;8.98;;;3.65;;
78141;SDS011;67393;52.620;13.482;2023-12-20T02:09:34;7.63;;;3.92;;
78141;SDS011;67393;52.620;13.482;2023-12-20T02:12:01;9.75;;;3.67;;
78141;SDS011;67393;52.620;13.482;2023-12-20T02:14:27;8.25;;;3.85;;
78141;SDS011;67393;52.620;13.482;2023-12-20T02:16:54;9.20;;;4.07;;
78141;SDS011;67393;52.620;13.482;2023-12-20T02:19:20;7.07;;;3.65;;
78141;SDS011;67393;52.620;13.482;2023-12-20T02:21:47;7.85;;;4.25;;
78141;SDS011;67393;52.620;13.482;2023-12-20T02:24:13;11.63;;;4.20;;
78141;SDS011;67393;52.620;13.482;2023-12-20T02:26:40;6.47;;;3.72;;
78141;SDS011;67393;52.620;13.482;2023-12-20T02:29:11;5.50;;;3.00;;
78141;SDS011;67393;52.620;13.482;2023-12-20T02:31:37;7.40;;;3.53;;
78141;SDS011;67393;52.620;13.482;2023-12-20T02:34:04;8.82;;;3.70;;
78141;SDS011;67393;52.620;13.482;2023-12-20T02:36:30;9.27;;;3.15;;
78141;SDS011;67393;52.620;13.482;2023-12-20T02:38:57;5.97;;;3.75;;
78141;SDS011;67393;52.620;13.482;2023-12-20T02:41:23;9.82;;;3.30;;
78141;SDS011;67393;52.620;13.482;2023-12-20T02:43:49;11.82;;;4.25;;
78141;SDS011;67393;52.620;13.482;2023-12-20T02:46:16;6.63;;;3.15;;
78141;SDS011;67393;52.620;13.482;2023-12-20T02:51:10;9.50;;;2.63;;
78141;SDS011;67393;52.620;13.482;2023-12-20T02:53:36;9.15;;;4.07;;
78141;SDS011;67393;52.620;13.482;2023-12-20T02:56:02;10.57;;;3.65;;
78141;SDS011;67393;52.620;13.482;2023-12-20T02:58:29;6.13;;;3.22;;
78141;SDS011;67393;52.620;13.482;2023-12-20T03:00:56;10.50;;;3.67;;
78141;SDS011;67393;52.620;13.482;2023-12-20T03:03:22;6.05;;;2.97;;
78141;SDS011;67393;52.620;13.482;2023-12-20T03:05:48;8.65;;;2.85;;
78141;SDS011;67393;52.620;13.482;2023-12-20T03:08:15;6.70;;;2.80;;
78141;SDS011;67393;52.620;13.482;2023-12-20T03:10:41;8.20;;;2.80;;
78141;SDS011;67393;52.620;13.482;2023-12-20T03:13:08;9.23;;;3.00;;
78141;SDS011;67393;52.620;13.482;2023-12-20T03:15:34;9.60;;;3.45;;
78141;SDS011;67393;52.620;13.482;2023-12-20T03:18:00;7.18;;;2.38;;
78141;SDS011;67393;52.620;13.482;2023-12-20T03:20:27;8.23;;;2.85;;
78141;SDS011;67393;52.620;13.482;2023-12-20T03:22:54;8.65;;;2.53;;
78141;SDS011;67393;52.620;13.482;2023-12-20T03:25:20;10.52;;;2.72;;
78141;SDS011;67393;52.620;13.482;2023-12-20T03:27:46;8.85;;;2.35;;
78141;SDS011;67393;52.620;13.482;2023-12-20T03:30:13;4.78;;;2.30;;
78141;SDS011;67393;52.620;13.482;2023-12-20T03:32:40;19.33;;;2.97;;
78141;SDS011;67393;52.620;13.482;2023-12-20T03:35:06;6.32;;;2.10;;
78141;SDS011;67393;52.620;13.482;2023-12-20T03:37:33;11.40;;;2.58;;
78141;SDS011;67393;52.620;13.482;2023-12-20T03:39:59;3.75;;;2.22;;
78141;SDS011;67393;52.620;13.482;2023-12-20T03:42:26;12.15;;;2.50;;
78141;SDS011;67393;52.620;13.482;2023-12-20T03:44:52;8.27;;;2.83;;
78141;SDS011;67393;52.620;13.482;2023-12-20T03:47:19;5.82;;;2.35;;
78141;SDS011;67393;52.620;13.482;2023-12-20T03:49:45;10.95;;;2.72;;
78141;SDS011;67393;52.620;13.482;2023-12-20T03:52:11;8.73;;;3.35;;
78141;SDS011;67393;52.620;13.482;2023-12-20T03:54:38;5.15;;;2.88;;
78141;SDS011;67393;52.620;13.482;2023-12-20T03:57:04;9.32;;;3.72;;
78141;SDS011;67393;52.620;13.482;2023-12-20T03:59:34;11.77;;;3.38;;
78141;SDS011;67393;52.620;13.482;2023-12-20T04:02:01;8.02;;;2.88;;
78141;SDS011;67393;52.620;13.482;2023-12-20T04:04:28;8.63;;;2.72;;
78141;SDS011;67393;52.620;13.482;2023-12-20T04:06:54;10.63;;;3.08;;
78141;SDS011;67393;52.620;13.482;2023-12-20T04:09:21;10.63;;;3.60;;
78141;SDS011;67393;52.620;13.482;2023-12-20T04:11:47;7.40;;;3.22;;
78141;SDS011;67393;52.620;13.482;2023-12-20T04:14:14;8.25;;;3.22;;
78141;SDS011;67393;52.620;13.482;2023-12-20T04:16:40;6.30;;;2.17;;
78141;SDS011;67393;52.620;13.482;2023-12-20T04:19:10;11.93;;;2.70;;
78141;SDS011;67393;52.620;13.482;2023-12-20T04:21:36;12.55;;;2.75;;
78141;SDS011;67393;52.620;13.482;2023-12-20T04:24:03;9.27;;;3.05;;
78141;SDS011;67393;52.620;13.482;2023-12-20T04:26:29;11.63;;;2.45;;
78141;SDS011;67393;52.620;13.482;2023-12-20T04:28:56;13.77;;;2.45;;
78141;SDS011;67393;52.620;13.482;2023-12-20T04:31:22;8.07;;;2.83;;
78141;SDS011;67393;52.620;13.482;2023-12-20T04:33:49;14.68;;;2.63;;
78141;SDS011;67393;52.620;13.482;2023-12-20T04:36:15;7.80;;;2.17;;
78141;SDS011;67393;52.620;13.482;2023-12-20T04:38:42;9.73;;;2.55;;
78141;SDS011;67393;52.620;13.482;2023-12-20T04:41:08;3.40;;;2.33;;
78141;SDS011;67393;52.620;13.482;2023-12-20T04:43:35;6.32;;;1.98;;
78141;SDS011;67393;52.620;13.482;2023-12-20T04:46:01;6.68;;;1.90;;
78141;SDS011;67393;52.620;13.482;2023-12-20T04:48:28;13.77;;;2.53;;
78141;SDS011;67393;52.620;13.482;2023-12-20T04:50:54;6.95;;;2.40;;
78141;SDS011;67393;52.620;13.482;2023-12-20T04:53:21;10.30;;;2.80;;
78141;SDS011;67393;52.620;13.482;2023-12-20T04:55:47;7.70;;;2.70;;
78141;SDS011;67393;52.620;13.482;2023-12-20T04:58:13;6.40;;;1.92;;
78141;SDS011;67393;52.620;13.482;2023-12-20T05:00:40;11.18;;;2.47;;
78141;SDS011;67393;52.620;13.482;2023-12-20T05:03:06;11.80;;;3.03;;
78141;SDS011;67393;52.620;13.482;2023-12-20T05:05:33;6.22;;;2.28;;
78141;SDS011;67393;52.620;13.482;2023-12-20T05:07:59;15.80;;;2.78;;
78141;SDS011;67393;52.620;13.482;2023-12-20T05:10:26;11.07;;;2.85;;
78141;SDS011;67393;52.620;13.482;2023-12-20T05:12:52;9.25;;;2.72;;
78141;SDS011;67393;52.620;13.482;2023-12-20T05:15:19;9.45;;;2.85;;
78141;SDS011;67393;52.620;13.482;2023-12-20T05:17:45;4.07;;;1.80;;
78141;SDS011;67393;52.620;13.482;2023-12-20T05:20:12;5.38;;;2.03;;
78141;SDS011;67393;52.620;13.482;2023-12-20T05:22:38;10.68;;;2.38;;
78141;SDS011;67393;52.620;13.482;2023-12-20T05:25:05;7.47;;;2.53;;
78141;SDS011;67393;52.620;13.482;2023-12-20T05:27:31;16.23;;;2.63;;
78141;SDS011;67393;52.620;13.482;2023-12-20T05:29:58;12.05;;;2.90;;
78141;SDS011;67393;52.620;13.482;2023-12-20T05:32:24;5.78;;;2.35;;
78141;SDS011;67393;52.620;13.482;2023-12-20T05:34:51;8.00;;;2.60;;
78141;SDS011;67393;52.620;13.482;2023-12-20T05:37:17;8.70;;;1.95;;
78141;SDS011;67393;52.620;13.482;2023-12-20T05:39:43;6.07;;;2.70;;
78141;SDS011;67393;52.620;13.482;2023-12-20T05:42:10;11.65;;;2.92;;
78141;SDS011;67393;52.620;13.482;2023-12-20T05:44:36;11.85;;;2.90;;
78141;SDS011;67393;52.620;13.482;2023-12-20T05:47:03;10.88;;;2.78;;
78141;SDS011;67393;52.620;13.482;2023-12-20T05:49:29;7.38;;;3.10;;
78141;SDS011;67393;52.620;13.482;2023-12-20T05:51:56;8.23;;;2.92;;
78141;SDS011;67393;52.620;13.482;2023-12-20T05:54:22;7.30;;;2.58;;
78141;SDS011;67393;52.620;13.482;2023-12-20T05:56:48;7.00;;;2.38;;
78141;SDS011;67393;52.620;13.482;2023-12-20T05:59:15;6.97;;;2.42;;
78141;SDS011;67393;52.620;13.482;2023-12-20T06:01:41;10.57;;;2.80;;
78141;SDS011;67393;52.620;13.482;2023-12-20T06:04:08;9.07;;;2.90;;
78141;SDS011;67393;52.620;13.482;2023-12-20T06:06:34;11.10;;;2.97;;
78141;SDS011;67393;52.620;13.482;2023-12-20T06:09:06;15.18;;;2.33;;
78141;SDS011;67393;52.620;13.482;2023-12-20T06:11:32;11.00;;;2.92;;
78141;SDS011;67393;52.620;13.482;2023-12-20T06:13:58;8.48;;;2.50;;
78141;SDS011;67393;52.620;13.482;2023-12-20T06:16:25;13.65;;;2.50;;
78141;SDS011;67393;52.620;13.482;2023-12-20T06:18:51;13.07;;;2.30;;
78141;SDS011;67393;52.620;13.482;2023-12-20T06:21:18;10.80;;;2.00;;
78141;SDS011;67393;52.620;13.482;2023-12-20T06:23:44;10.85;;;3.00;;
78141;SDS011;67393;52.620;13.482;2023-12-20T06:26:10;7.40;;;2.30;;
78141;SDS011;67393;52.620;13.482;2023-12-20T06:28:37;11.13;;;2.80;;
78141;SDS011;67393;52.620;13.482;2023-12-20T06:31:07;8.18;;;2.13;;
78141;SDS011;67393;52.620;13.482;2023-12-20T06:33:33;10.60;;;2.85;;
78141;SDS011;67393;52.620;13.482;2023-12-20T06:36:00;4.22;;;1.92;;
78141;SDS011;67393;52.620;13.482;2023-12-20T06:38:26;13.00;;;2.13;;
78141;SDS011;67393;52.620;13.482;2023-12-20T06:40:53;6.65;;;2.17;;
78141;SDS011;67393;52.620;13.482;2023-12-20T06:43:20;9.45;;;2.05;;
78141;SDS011;67393;52.620;13.482;2023-12-20T06:46:06;9.57;;;2.70;;
78141;SDS011;67393;52.620;13.482;2023-12-20T06:48:32;8.15;;;2.55;;
78141;SDS011;67393;52.620;13.482;2023-12-20T06:51:00;7.18;;;2.17;;
78141;SDS011;67393;52.620;13.482;2023-12-20T06:53:27;7.25;;;2.85;;
78141;SDS011;67393;52.620;13.482;2023-12-20T06:55:54;9.80;;;2.38;;
78141;SDS011;67393;52.620;13.482;2023-12-20T06:58:20;11.15;;;2.58;;
78141;SDS011;67393;52.620;13.482;2023-12-20T07:00:46;20.83;;;3.65;;
78141;SDS011;67393;52.620;13.482;2023-12-20T07:03:13;16.27;;;2.72;;
78141;SDS011;67393;52.620;13.482;2023-12-20T07:05:39;12.45;;;2.72;;
78141;SDS011;67393;52.620;13.482;2023-12-20T07:08:06;8.25;;;2.00;;
78141;SDS011;67393;52.620;13.482;2023-12-20T07:10:33;14.98;;;2.97;;
78141;SDS011;67393;52.620;13.482;2023-12-20T07:12:59;14.43;;;3.13;;
78141;SDS011;67393;52.620;13.482;2023-12-20T07:15:26;10.35;;;2.78;;
78141;SDS011;67393;52.620;13.482;2023-12-20T07:17:52;7.90;;;3.25;;
78141;SDS011;67393;52.620;13.482;2023-12-20T07:20:19;7.97;;;2.60;;
78141;SDS011;67393;52.620;13.482;2023-12-20T07:22:45;7.88;;;2.60;;
78141;SDS011;67393;52.620;13.482;2023-12-20T07:25:12;11.40;;;3.50;;
78141;SDS011;67393;52.620;13.482;2023-12-20T07:27:38;17.85;;;3.15;;
78141;SDS011;67393;52.620;13.482;2023-12-20T07:30:07;14.18;;;2.20;;
78141;SDS011;67393;52.620;13.482;2023-12-20T07:32:34;12.32;;;3.15;;
78141;SDS011;67393;52.620;13.482;2023-12-20T07:35:01;10.25;;;2.70;;
78141;SDS011;67393;52.620;13.482;2023-12-20T07:37:28;7.38;;;2.80;;
78141;SDS011;67393;52.620;13.482;2023-12-20T07:39:54;8.98;;;3.15;;
78141;SDS011;67393;52.620;13.482;2023-12-20T07:42:21;8.05;;;2.80;;
78141;SDS011;67393;52.620;13.482;2023-12-20T07:44:47;9.35;;;3.53;;
78141;SDS011;67393;52.620;13.482;2023-12-20T07:47:14;10.15;;;3.10;;
78141;SDS011;67393;52.620;13.482;2023-12-20T07:49:40;12.45;;;3.60;;
78141;SDS011;67393;52.620;13.482;2023-12-20T07:52:07;11.35;;;2.88;;
78141;SDS011;67393;52.620;13.482;2023-12-20T07:54:33;14.93;;;2.22;;
78141;SDS011;67393;52.620;13.482;2023-12-20T07:56:59;17.48;;;4.57;;
78141;SDS011;67393;52.620;13.482;2023-12-20T07:59:26;8.77;;;3.10;;
78141;SDS011;67393;52.620;13.482;2023-12-20T08:01:58;10.10;;;2.97;;
78141;SDS011;67393;52.620;13.482;2023-12-20T08:06:52;7.30;;;2.20;;
78141;SDS011;67393;52.620;13.482;2023-12-20T08:09:19;15.95;;;3.00;;
78141;SDS011;67393;52.620;13.482;2023-12-20T08:11:46;4.70;;;2.67;;
78141;SDS011;67393;52.620;13.482;2023-12-20T08:14:13;3.63;;;1.83;;
78141;SDS011;67393;52.620;13.482;2023-12-20T08:16:43;13.45;;;5.70;;
78141;SDS011;67393;52.620;13.482;2023-12-20T08:19:09;5.18;;;2.40;;
78141;SDS011;67393;52.620;13.482;2023-12-20T08:21:36;7.65;;;3.50;;
78141;SDS011;67393;52.620;13.482;2023-12-20T08:24:04;4.22;;;2.42;;
78141;SDS011;67393;52.620;13.482;2023-12-20T08:26:31;12.75;;;3.20;;
78141;SDS011;67393;52.620;13.482;2023-12-20T08:28:58;6.93;;;2.70;;
78141;SDS011;67393;52.620;13.482;2023-12-20T08:31:27;11.40;;;2.67;;
78141;SDS011;67393;52.620;13.482;2023-12-20T08:33:54;10.93;;;3.03;;
78141;SDS011;67393;52.620;13.482;2023-12-20T08:36:21;9.25;;;3.03;;
78141;SDS011;67393;52.620;13.482;2023-12-20T08:38:47;7.40;;;2.38;;
78141;SDS011;67393;52.620;13.482;2023-12-20T08:41:13;9.85;;;2.38;;
78141;SDS011;67393;52.620;13.482;2023-12-20T08:43:40;9.60;;;2.83;;
78141;SDS011;67393;52.620;13.482;2023-12-20T08:46:06;16.88;;;3.28;;
78141;SDS011;67393;52.620;13.482;2023-12-20T08:48:34;10.95;;;2.10;;
78141;SDS011;67393;52.620;13.482;2023-12-20T08:51:01;4.75;;;2.03;;
78141;SDS011;67393;52.620;13.482;2023-12-20T08:53:27;9.98;;;3.15;;
78141;SDS011;67393;52.620;13.482;2023-12-20T08:55:53;8.27;;;2.17;;
78141;SDS011;67393;52.620;13.482;2023-12-20T08:58:20;3.58;;;2.05;;
78141;SDS011;67393;52.620;13.482;2023-12-20T09:00:46;9.60;;;2.88;;
78141;SDS011;67393;52.620;13.482;2023-12-20T09:03:12;12.70;;;3.13;;
78141;SDS011;67393;52.620;13.482;2023-12-20T09:05:39;10.68;;;3.33;;
78141;SDS011;67393;52.620;13.482;2023-12-20T09:08:05;11.07;;;2.55;;
78141;SDS011;67393;52.620;13.482;2023-12-20T09:10:32;3.50;;;2.15;;
78141;SDS011;67393;52.620;13.482;2023-12-20T09:12:59;7.72;;;2.15;;
78141;SDS011;67393;52.620;13.482;2023-12-20T09:15:26;14.60;;;2.95;;
78141;SDS011;67393;52.620;13.482;2023-12-20T09:17:53;10.27;;;2.15;;
78141;SDS011;67393;52.620;13.482;2023-12-20T09:20:19;6.38;;;2.20;;
78141;SDS011;67393;52.620;13.482;2023-12-20T09:22:46;8.90;;;2.92;;
78141;SDS011;67393;52.620;13.482;2023-12-20T09:25:12;4.43;;;2.13;;
78141;SDS011;67393;52.620;13.482;2023-12-20T09:27:39;2.30;;;1.63;;
78141;SDS011;67393;52.620;13.482;2023-12-20T09:30:06;12.35;;;2.95;;
78141;SDS011;67393;52.620;13.482;2023-12-20T09:32:33;7.88;;;1.90;;
78141;SDS011;67393;52.620;13.482;2023-12-20T09:35:00;9.18;;;2.50;;
78141;SDS011;67393;52.620;13.482;2023-12-20T09:37:27;3.92;;;1.92;;
78141;SDS011;67393;52.620;13.482;2023-12-20T09:39:54;5.68;;;1.85;;
78141;SDS011;67393;52.620;13.482;2023-12-20T09:42:23;5.03;;;1.58;;
78141;SDS011;67393;52.620;13.482;2023-12-20T09:44:54;7.30;;;2.28;;
78141;SDS011;67393;52.620;13.482;2023-12-20T09:47:21;6.82;;;2.55;;
78141;SDS011;67393;52.620;13.482;2023-12-20T09:49:50;3.72;;;1.80;;
78141;SDS011;67393;52.620;13.482;2023-12-20T09:52:18;6.90;;;2.28;;
78141;SDS011;67393;52.620;13.482;2023-12-20T09:54:45;16.27;;;3.20;;
78141;SDS011;67393;52.620;13.482;2023-12-20T09:57:15;8.18;;;2.17;;
78141;SDS011;67393;52.620;13.482;2023-12-20T09:59:42;7.18;;;3.03;;
78141;SDS011;67393;52.620;13.482;2023-12-20T10:02:09;5.75;;;2.60;;
78141;SDS011;67393;52.620;13.482;2023-12-20T10:04:39;5.00;;;1.40;;
78141;SDS011;67393;52.620;13.482;2023-12-20T10:07:12;10.10;;;2.53;;
78141;SDS011;67393;52.620;13.482;2023-12-20T10:09:39;11.48;;;2.22;;
78141;SDS011;67393;52.620;13.482;2023-12-20T10:12:05;9.90;;;2.55;;
78141;SDS011;67393;52.620;13.482;2023-12-20T10:14:32;4.95;;;2.20;;
78141;SDS011;67393;52.620;13.482;2023-12-20T10:17:02;8.23;;;2.50;;
78141;SDS011;67393;52.620;13.482;2023-12-20T10:19:30;10.98;;;2.42;;
78141;SDS011;67393;52.620;13.482;2023-12-20T10:22:00;12.60;;;2.65;;
78141;SDS011;67393;52.620;13.482;2023-12-20T10:24:29;12.13;;;2.90;;
78141;SDS011;67393;52.620;13.482;2023-12-20T10:27:03;3.70;;;1.60;;
78141;SDS011;67393;52.620;13.482;2023-12-20T10:29:36;9.48;;;2.88;;
78141;SDS011;67393;52.620;13.482;2023-12-20T10:32:21;8.93;;;1.70;;
78141;SDS011;67393;52.620;13.482;2023-12-20T10:34:49;8.93;;;2.20;;
78141;SDS011;67393;52.620;13.482;2023-12-20T10:37:17;3.85;;;1.88;;
78141;SDS011;67393;52.620;13.482;2023-12-20T10:39:43;6.40;;;1.83;;
78141;SDS011;67393;52.620;13.482;2023-12-20T10:42:13;7.65;;;2.80;;
78141;SDS011;67393;52.620;13.482;2023-12-20T10:44:42;7.63;;;2.45;;
78141;SDS011;67393;52.620;13.482;2023-12-20T10:47:09;11.80;;;3.08;;
78141;SDS011;67393;52.620;13.482;2023-12-20T10:49:39;2.75;;;1.70;;
78141;SDS011;67393;52.620;13.482;2023-12-20T10:54:35;8.55;;;2.65;;
78141;SDS011;67393;52.620;13.482;2023-12-20T10:57:01;3.33;;;1.83;;
78141;SDS011;67393;52.620;13.482;2023-12-20T10:59:36;14.30;;;3.08;;
78141;SDS011;67393;52.620;13.482;2023-12-20T11:02:03;12.55;;;2.65;;
78141;SDS011;67393;52.620;13.482;2023-12-20T11:04:34;8.27;;;2.90;;
78141;SDS011;67393;52.620;13.482;2023-12-20T11:09:49;6.20;;;1.85;;
78141;SDS011;67393;52.620;13.482;2023-12-20T11:12:31;10.88;;;2.42;;
78141;SDS011;67393;52.620;13.482;2023-12-20T11:17:31;10.00;;;2.00;;
78141;SDS011;67393;52.620;13.482;2023-12-20T11:22:25;6.57;;;2.65;;
78141;SDS011;67393;52.620;13.482;2023-12-20T11:24:52;18.02;;;3.78;;
78141;SDS011;67393;52.620;13.482;2023-12-20T11:27:19;11.65;;;3.33;;
78141;SDS011;67393;52.620;13.482;2023-12-20T11:29:52;7.13;;;2.47;;
78141;SDS011;67393;52.620;13.482;2023-12-20T11:37:38;11.75;;;2.40;;
78141;SDS011;67393;52.620;13.482;2023-12-20T11:40:05;15.23;;;2.10;;
78141;SDS011;67393;52.620;13.482;2023-12-20T11:42:33;3.97;;;2.65;;
78141;SDS011;67393;52.620;13.482;2023-12-20T11:45:01;8.93;;;3.75;;
78141;SDS011;67393;52.620;13.482;2023-12-20T11:47:28;5.63;;;3.15;;
78141;SDS011;67393;52.620;13.482;2023-12-20T11:49:56;12.43;;;2.85;;
78141;SDS011;67393;52.620;13.482;2023-12-20T11:52:23;8.13;;;2.80;;
78141;SDS011;67393;52.620;13.482;2023-12-20T11:54:49;8.57;;;2.97;;
78141;SDS011;67393;52.620;13.482;2023-12-20T11:57:16;9.80;;;2.25;;
78141;SDS011;67393;52.620;13.482;2023-12-20T11:59:42;5.55;;;2.88;;
78141;SDS011;67393;52.620;13.482;2023-12-20T12:02:11;14.52;;;3.83;;
78141;SDS011;67393;52.620;13.482;2023-12-20T12:04:38;5.53;;;2.60;;
78141;SDS011;67393;52.620;13.482;2023-12-20T12:07:04;7.43;;;2.35;;
78141;SDS011;67393;52.620;13.482;2023-12-20T12:09:31;9.73;;;3.22;;
78141;SDS011;67393;52.620;13.482;2023-12-20T12:11:57;9.07;;;2.88;;
78141;SDS011;67393;52.620;13.482;2023-12-20T12:14:24;5.28;;;2.53;;
78141;SDS011;67393;52.620;13.482;2023-12-20T12:16:50;10.55;;;2.88;;
78141;SDS011;67393;52.620;13.482;2023-12-20T12:19:21;9.88;;;2.72;;
78141;SDS011;67393;52.620;13.482;2023-12-20T12:21:49;8.73;;;2.92;;
78141;SDS011;67393;52.620;13.482;2023-12-20T12:24:19;8.85;;;2.78;;
78141;SDS011;67393;52.620;13.482;2023-12-20T12:26:50;11.02;;;2.65;;
78141;SDS011;67393;52.620;13.482;2023-12-20T12:29:17;11.95;;;3.42;;
78141;SDS011;67393;52.620;13.482;2023-12-20T12:31:43;8.48;;;3.17;;
78141;SDS011;67393;52.620;13.482;2023-12-20T12:34:10;3.83;;;2.45;;
78141;SDS011;67393;52.620;13.482;2023-12-20T12:36:36;7.47;;;2.33;;
78141;SDS011;67393;52.620;13.482;2023-12-20T12:39:03;10.55;;;3.13;;
78141;SDS011;67393;52.620;13.482;2023-12-20T12:41:29;6.68;;;3.15;;
78141;SDS011;67393;52.620;13.482;2023-12-20T12:43:56;6.47;;;2.63;;
78141;SDS011;67393;52.620;13.482;2023-12-20T12:46:28;7.75;;;3.13;;
78141;SDS011;67393;52.620;13.482;2023-12-20T12:48:54;10.98;;;3.50;;
78141;SDS011;67393;52.620;13.482;2023-12-20T12:51:21;7.00;;;2.08;;
78141;SDS011;67393;52.620;13.482;2023-12-20T12:53:47;14.18;;;2.50;;
78141;SDS011;67393;52.620;13.482;2023-12-20T12:56:14;9.63;;;3.55;;
78141;SDS011;67393;52.620;13.482;2023-12-20T12:58:41;7.28;;;2.33;;
78141;SDS011;67393;52.620;13.482;2023-12-20T13:01:08;8.98;;;2.60;;
78141;SDS011;67393;52.620;13.482;2023-12-20T13:03:35;7.90;;;3.00;;
78141;SDS011;67393;52.620;13.482;2023-12-20T13:06:02;6.68;;;3.28;;
78141;SDS011;67393;52.620;13.482;2023-12-20T13:08:28;11.30;;;3.67;;
78141;SDS011;67393;52.620;13.482;2023-12-20T13:10:55;6.25;;;3.17;;
78141;SDS011;67393;52.620;13.482;2023-12-20T13:13:21;7.63;;;3.25;;
78141;SDS011;67393;52.620;13.482;2023-12-20T13:15:48;6.10;;;2.92;;
78141;SDS011;67393;52.620;13.482;2023-12-20T13:18:14;4.72;;;2.53;;
78141;SDS011;67393;52.620;13.482;2023-12-20T13:20:41;10.13;;;3.70;;
78141;SDS011;67393;52.620;13.482;2023-12-20T13:23:07;7.82;;;2.05;;
78141;SDS011;67393;52.620;13.482;2023-12-20T13:25:33;3.25;;;1.63;;
78141;SDS011;67393;52.620;13.482;2023-12-20T13:28:00;2.42;;;1.75;;
78141;SDS011;67393;52.620;13.482;2023-12-20T13:30:27;4.10;;;1.58;;
78141;SDS011;67393;52.620;13.482;2023-12-20T13:32:53;3.63;;;1.90;;
78141;SDS011;67393;52.620;13.482;2023-12-20T13:35:20;3.13;;;1.65;;
78141;SDS011;67393;52.620;13.482;2023-12-20T13:37:46;2.45;;;1.08;;
78141;SDS011;67393;52.620;13.482;2023-12-20T13:40:13;3.30;;;2.22;;
78141;SDS011;67393;52.620;13.482;2023-12-20T13:42:40;3.00;;;1.85;;
78141;SDS011;67393;52.620;13.482;2023-12-20T13:45:07;5.28;;;1.73;;
78141;SDS011;67393;52.620;13.482;2023-12-20T13:47:35;8.00;;;1.50;;
78141;SDS011;67393;52.620;13.482;2023-12-20T13:50:02;3.55;;;2.28;;
78141;SDS011;67393;52.620;13.482;2023-12-20T13:52:29;4.45;;;2.10;;
78141;SDS011;67393;52.620;13.482;2023-12-20T13:54:56;6.55;;;1.80;;
78141;SDS011;67393;52.620;13.482;2023-12-20T13:57:22;1.90;;;1.45;;
78141;SDS011;67393;52.620;13.482;2023-12-20T14:00:09;2.95;;;1.10;;
78141;SDS011;67393;52.620;13.482;2023-12-20T14:02:36;3.00;;;1.40;;
78141;SDS011;67393;52.620;13.482;2023-12-20T14:05:02;4.53;;;1.60;;
78141;SDS011;67393;52.620;13.482;2023-12-20T14:07:29;4.53;;;2.30;;
78141;SDS011;67393;52.620;13.482;2023-12-20T14:09:55;4.10;;;1.75;;
78141;SDS011;67393;52.620;13.482;2023-12-20T14:12:22;6.38;;;1.90;;
78141;SDS011;67393;52.620;13.482;2023-12-20T14:14:48;6.68;;;1.30;;
78141;SDS011;67393;52.620;13.482;2023-12-20T14:17:15;1.42;;;1.20;;
78141;SDS011;67393;52.620;13.482;2023-12-20T14:19:41;0.85;;;0.85;;
78141;SDS011;67393;52.620;13.482;2023-12-20T14:22:08;4.50;;;1.50;;
78141;SDS011;67393;52.620;13.482;2023-12-20T14:24:37;4.20;;;1.05;;
78141;SDS011;67393;52.620;13.482;2023-12-20T14:27:04;2.53;;;0.93;;
78141;SDS011;67393;52.620;13.482;2023-12-20T14:29:30;1.27;;;0.95;;
78141;SDS011;67393;52.620;13.482;2023-12-20T14:31:57;3.72;;;1.20;;
78141;SDS011;67393;52.620;13.482;2023-12-20T14:34:23;6.60;;;1.60;;
78141;SDS011;67393;52.620;13.482;2023-12-20T14:36:50;1.67;;;1.00;;
78141;SDS011;67393;52.620;13.482;2023-12-20T14:39:16;2.55;;;1.38;;
78141;SDS011;67393;52.620;13.482;2023-12-20T14:41:42;4.53;;;1.65;;
78141;SDS011;67393;52.620;13.482;2023-12-20T14:44:09;3.38;;;2.17;;
78141;SDS011;67393;52.620;13.482;2023-12-20T14:46:35;2.20;;;1.00;;
78141;SDS011;67393;52.620;13.482;2023-12-20T14:49:04;2.90;;;1.27;;